createdAt,value
2023-02-15T00:02:53.372Z,37.70
2023-02-15T00:06:01.619Z,38.89
2023-02-15T00:09:08.570Z,39.53
2023-02-15T00:12:15.335Z,39.49
2023-02-15T00:15:23.814Z,33.98
2023-02-15T00:18:30.423Z,30.28
2023-02-15T00:21:39.320Z,34.82
2023-02-15T00:24:45.977Z,37.65
2023-02-15T00:27:51.831Z,36.41
2023-02-15T00:31:08.438Z,36.52
2023-02-15T00:34:20.256Z,37.07
2023-02-15T00:37:30.282Z,37.71
2023-02-15T00:40:36.152Z,34.68
2023-02-15T00:43:42.874Z,32.82
2023-02-15T00:46:51.298Z,34.41
2023-02-15T00:49:57.934Z,33.96
2023-02-15T00:53:03.786Z,35.70
2023-02-15T00:56:10.870Z,34.99
2023-02-15T00:59:17.108Z,34.45
2023-02-15T01:02:34.825Z,35.99
2023-02-15T01:05:42.168Z,36.47
2023-02-15T01:08:49.966Z,35.37
2023-02-15T01:11:55.740Z,34.40
2023-02-15T01:15:09.446Z,32.71
2023-02-15T01:18:22.162Z,30.40
2023-02-15T01:21:30.624Z,30.30
2023-02-15T01:24:36.810Z,33.17
2023-02-15T01:27:43.560Z,33.35
2023-02-15T01:30:49.504Z,33.95
2023-02-15T01:33:59.875Z,33.31
2023-02-15T01:37:06.330Z,32.51
2023-02-15T01:40:19.473Z,33.40
2023-02-15T01:43:48.391Z,33.80
2023-02-15T01:46:58.176Z,32.71
2023-02-15T01:50:16.499Z,34.39
2023-02-15T01:53:31.072Z,33.06
2023-02-15T01:56:43.745Z,32.85
2023-02-15T01:59:59.216Z,30.99
2023-02-15T02:03:08.344Z,31.35
2023-02-15T02:06:18.490Z,30.08
2023-02-15T02:09:25.985Z,31.09
2023-02-15T02:12:34.551Z,32.50
2023-02-15T02:15:55.967Z,33.22
2023-02-15T02:19:43.460Z,31.89
2023-02-15T02:23:22.574Z,30.35
2023-02-15T02:27:22.235Z,28.30
2023-02-15T02:31:00.795Z,29.08
2023-02-15T02:34:21.233Z,30.34
2023-02-15T02:37:42.820Z,30.56
2023-02-15T02:41:24.023Z,30.68
2023-02-15T02:44:50.494Z,29.92
2023-02-15T02:48:05.357Z,30.10
2023-02-15T02:51:15.296Z,30.19
2023-02-15T02:54:23.570Z,30.71
2023-02-15T02:57:34.055Z,34.17
2023-02-15T03:00:49.037Z,33.30
2023-02-15T03:04:07.457Z,33.33
2023-02-15T03:07:23.887Z,31.91
2023-02-15T03:10:33.490Z,32.37
2023-02-15T03:13:40.796Z,33.96
2023-02-15T03:16:52.608Z,34.47
2023-02-15T03:20:07.170Z,36.23
2023-02-15T03:23:25.209Z,34.61
2023-02-15T03:26:37.017Z,33.35
2023-02-15T03:29:44.545Z,35.45
2023-02-15T03:32:54.953Z,33.77
2023-02-15T03:36:13.378Z,33.57
2023-02-15T03:39:36.890Z,33.83
2023-02-15T03:42:45.559Z,34.90
2023-02-15T03:46:02.297Z,35.90
2023-02-15T03:49:18.715Z,35.54
2023-02-15T03:52:31.981Z,34.14
2023-02-15T03:55:41.133Z,32.86
2023-02-15T03:59:00.229Z,32.11
2023-02-15T04:02:23.569Z,30.45
2023-02-15T04:05:30.249Z,32.35
2023-02-15T04:08:48.240Z,33.81
2023-02-15T04:11:57.739Z,31.52
2023-02-15T04:15:15.869Z,30.99
2023-02-15T04:18:22.600Z,32.60
2023-02-15T04:21:44.091Z,31.87
2023-02-15T04:25:03.108Z,30.51
2023-02-15T04:28:12.075Z,30.92
2023-02-15T04:31:18.881Z,32.03
2023-02-15T04:34:26.453Z,33.38
2023-02-15T04:37:33.262Z,36.20
2023-02-15T04:40:39.086Z,33.40
2023-02-15T04:43:48.363Z,32.70
2023-02-15T04:46:54.158Z,31.97
2023-02-15T04:50:00.967Z,31.83
2023-02-15T04:53:06.814Z,33.58
2023-02-15T04:56:13.709Z,35.05
2023-02-15T04:59:22.583Z,35.60
2023-02-15T05:02:29.781Z,35.46
2023-02-15T05:05:35.832Z,35.41
2023-02-15T05:08:42.538Z,35.38
2023-02-15T05:11:48.478Z,34.85
2023-02-15T05:14:57.730Z,33.13
2023-02-15T05:18:03.582Z,34.27
2023-02-15T05:21:10.282Z,34.29
2023-02-15T05:24:31.245Z,36.12
2023-02-15T05:27:50.291Z,36.25
2023-02-15T05:31:10.354Z,36.55
2023-02-15T05:34:17.213Z,36.65
2023-02-15T05:37:23.279Z,38.55
2023-02-15T05:40:30.153Z,38.28
2023-02-15T05:43:37.132Z,40.26
2023-02-15T05:46:46.451Z,40.66
2023-02-15T05:49:52.377Z,41.29
2023-02-15T05:52:59.083Z,42.41
2023-02-15T05:56:05.732Z,43.57
2023-02-15T05:59:13.882Z,42.37
2023-02-15T06:02:22.646Z,41.90
2023-02-15T06:05:29.465Z,41.72
2023-02-15T06:08:35.781Z,43.86
2023-02-15T06:11:42.956Z,45.40
2023-02-15T06:14:48.944Z,45.87
2023-02-15T06:17:58.281Z,43.92
2023-02-15T06:21:04.296Z,41.34
2023-02-15T06:24:12.815Z,42.07
2023-02-15T06:27:19.047Z,42.82
2023-02-15T06:30:26.029Z,44.13
2023-02-15T06:33:35.135Z,46.15
2023-02-15T06:36:42.040Z,47.65
2023-02-15T06:39:48.186Z,48.08
2023-02-15T06:42:54.983Z,45.85
2023-02-15T06:46:01.162Z,46.69
2023-02-15T06:49:11.201Z,46.75
2023-02-15T06:52:17.180Z,45.73
2023-02-15T06:55:23.900Z,45.63
2023-02-15T06:58:29.716Z,45.74
2023-02-15T07:01:38.183Z,45.63
2023-02-15T07:04:46.707Z,46.82
2023-02-15T07:07:53.537Z,46.24
2023-02-15T07:11:21.470Z,46.29
2023-02-15T07:14:29.020Z,47.51
2023-02-15T07:17:36.441Z,46.93
2023-02-15T07:20:45.956Z,47.23
2023-02-15T07:23:51.796Z,45.08
2023-02-15T07:26:58.737Z,45.44
2023-02-15T07:30:05.629Z,42.61
2023-02-15T07:33:28.346Z,45.06
2023-02-15T07:36:36.795Z,45.28
2023-02-15T07:39:43.776Z,43.17
2023-02-15T07:42:49.557Z,39.72
2023-02-15T07:45:57.391Z,39.77
2023-02-15T07:49:03.221Z,41.82
2023-02-15T07:52:12.603Z,41.66
2023-02-15T07:55:19.760Z,40.03
2023-02-15T07:58:47.074Z,40.46
2023-02-15T08:01:54.140Z,45.32
2023-02-15T08:05:00.890Z,41.74
2023-02-15T08:08:09.571Z,41.25
2023-02-15T08:11:30.367Z,37.51
2023-02-15T08:14:36.347Z,36.12
2023-02-15T08:17:43.297Z,36.05
2023-02-15T08:20:53.800Z,34.52
2023-02-15T08:24:03.635Z,34.39
2023-02-15T08:27:11.983Z,33.06
2023-02-15T08:30:19.313Z,32.83
2023-02-15T08:33:25.210Z,33.12
2023-02-15T08:36:34.725Z,33.27
2023-02-15T08:39:44.201Z,33.36
2023-02-15T08:42:50.857Z,32.67
2023-02-15T08:45:56.848Z,33.63
2023-02-15T08:49:03.980Z,32.81
2023-02-15T08:52:09.842Z,33.71
2023-02-15T08:55:19.376Z,33.98
2023-02-15T08:58:25.290Z,32.10
2023-02-15T09:01:35.677Z,30.95
2023-02-15T09:04:41.680Z,32.08
2023-02-15T09:07:48.341Z,31.57
2023-02-15T09:10:57.406Z,31.42
2023-02-15T09:14:09.339Z,31.75
2023-02-15T09:17:16.162Z,31.57
2023-02-15T09:20:23.554Z,32.44
2023-02-15T09:23:29.475Z,31.05
2023-02-15T09:26:42.671Z,31.92
2023-02-15T09:29:48.533Z,32.53
2023-02-15T09:32:55.426Z,29.84
2023-02-15T09:36:01.290Z,30.35
2023-02-15T09:39:13.048Z,29.21
2023-02-15T09:42:54.000Z,28.21
2023-02-15T09:46:33.375Z,28.85
2023-02-15T09:49:56.634Z,28.41
2023-02-15T09:53:37.617Z,27.43
2023-02-15T09:56:54.133Z,27.38
2023-02-15T10:00:22.795Z,26.76
2023-02-15T10:03:54.984Z,27.36
2023-02-15T10:07:27.197Z,25.99
2023-02-15T10:10:49.287Z,24.26
2023-02-15T10:14:23.360Z,24.94
2023-02-15T10:17:56.551Z,26.17
2023-02-15T10:21:24.422Z,24.97
2023-02-15T10:24:58.751Z,26.06
2023-02-15T10:28:13.326Z,27.93
2023-02-15T10:31:31.266Z,24.54
2023-02-15T10:34:46.811Z,25.08
2023-02-15T10:38:11.672Z,25.47
2023-02-15T10:41:40.892Z,24.70
2023-02-15T10:45:11.099Z,24.14
2023-02-15T10:48:52.517Z,24.60
2023-02-15T10:52:24.628Z,24.94
2023-02-15T10:55:52.896Z,24.07
2023-02-15T10:59:37.114Z,24.85
2023-02-15T11:03:19.131Z,24.19
2023-02-15T11:06:30.987Z,24.10
2023-02-15T11:09:49.371Z,23.31
2023-02-15T11:12:56.744Z,22.95
2023-02-15T11:16:12.418Z,25.89
2023-02-15T11:19:28.138Z,24.80
2023-02-15T11:22:38.787Z,24.97
2023-02-15T11:25:58.736Z,24.36
2023-02-15T11:29:21.967Z,24.33
2023-02-15T11:32:34.384Z,23.23
2023-02-15T11:35:55.868Z,23.36
2023-02-15T11:39:09.073Z,24.73
2023-02-15T11:42:24.989Z,25.34
2023-02-15T11:45:35.571Z,25.91
2023-02-15T11:48:43.663Z,26.97
2023-02-15T11:51:51.781Z,28.22
2023-02-15T11:54:59.368Z,28.74
2023-02-15T11:58:26.889Z,27.93
2023-02-15T12:01:39.133Z,26.59
2023-02-15T12:04:56.632Z,25.39
2023-02-15T12:08:18.831Z,28.16
2023-02-15T12:11:37.457Z,26.79
2023-02-15T12:14:53.589Z,27.62
2023-02-15T12:17:59.669Z,26.31
2023-02-15T12:21:14.650Z,26.22
2023-02-15T12:24:26.118Z,28.28
2023-02-15T12:27:38.357Z,28.23
2023-02-15T12:30:47.872Z,25.31
2023-02-15T12:34:04.953Z,25.72
2023-02-15T12:37:25.716Z,26.05
2023-02-15T12:40:35.251Z,27.74
2023-02-15T12:43:44.432Z,26.13
2023-02-15T12:47:06.560Z,26.30
2023-02-15T12:50:23.096Z,25.08
2023-02-15T12:53:38.980Z,25.72
2023-02-15T12:56:44.987Z,25.50
2023-02-15T12:59:54.934Z,25.62
2023-02-15T13:03:17.454Z,26.25
2023-02-15T13:06:25.931Z,26.07
2023-02-15T13:09:44.230Z,26.53
2023-02-15T13:12:55.282Z,26.59
2023-02-15T13:16:08.873Z,27.41
2023-02-15T13:19:24.696Z,27.56
2023-02-15T13:22:44.162Z,28.76
2023-02-15T13:25:52.897Z,28.28
2023-02-15T13:29:06.353Z,27.40
2023-02-15T13:32:31.185Z,29.07
2023-02-15T13:35:56.641Z,34.07
2023-02-15T13:39:23.138Z,33.19
2023-02-15T13:42:39.366Z,30.56
2023-02-15T13:46:15.256Z,30.94
2023-02-15T13:49:49.682Z,30.54
2023-02-15T13:53:25.403Z,29.07
2023-02-15T13:56:49.858Z,29.02
2023-02-15T14:00:16.213Z,30.08
2023-02-15T14:04:02.333Z,30.63
2023-02-15T14:07:40.092Z,29.90
2023-02-15T14:11:07.300Z,28.69
2023-02-15T14:14:50.652Z,27.48
2023-02-15T14:18:16.006Z,28.99
2023-02-15T14:21:34.576Z,28.65
2023-02-15T14:24:50.928Z,28.70
2023-02-15T14:28:15.341Z,28.63
2023-02-15T14:31:34.954Z,30.53
2023-02-15T14:34:53.504Z,31.42
2023-02-15T14:38:15.339Z,32.65
2023-02-15T14:41:35.795Z,35.12
2023-02-15T14:44:53.822Z,34.60
2023-02-15T14:48:16.316Z,35.38
2023-02-15T14:51:59.245Z,37.02
2023-02-15T14:55:06.661Z,35.08
2023-02-15T14:58:17.534Z,36.21
2023-02-15T15:01:36.234Z,34.57
2023-02-15T15:04:48.398Z,35.07
2023-02-15T15:08:01.567Z,38.09
2023-02-15T15:11:47.662Z,38.52
2023-02-15T15:14:56.022Z,35.89
2023-02-15T15:18:08.357Z,37.40
2023-02-15T15:21:15.287Z,35.22
2023-02-15T15:24:55.090Z,34.86
2023-02-15T15:28:01.943Z,35.11
2023-02-15T15:31:23.153Z,35.95
2023-02-15T15:35:15.845Z,40.95
2023-02-15T15:38:51.821Z,42.53
2023-02-15T15:42:19.443Z,43.28
2023-02-15T15:46:02.332Z,45.94
2023-02-15T15:49:18.181Z,45.65
2023-02-15T15:52:28.470Z,45.52
2023-02-15T15:55:38.468Z,52.35
2023-02-15T15:58:54.467Z,47.41
2023-02-15T16:02:08.757Z,43.96
2023-02-15T16:05:17.051Z,51.32
2023-02-15T16:08:37.281Z,65.06
2023-02-15T16:11:45.206Z,82.30
2023-02-15T16:14:54.606Z,72.09
2023-02-15T16:18:04.107Z,70.77
2023-02-15T16:21:21.426Z,70.20
2023-02-15T16:25:05.478Z,80.46
2023-02-15T16:28:19.678Z,95.27
2023-02-15T16:31:26.939Z,110.05
2023-02-15T16:34:33.871Z,128.55
2023-02-15T16:37:40.286Z,111.56
2023-02-15T16:40:58.882Z,105.83
2023-02-15T16:44:13.965Z,104.36
2023-02-15T16:47:28.417Z,97.30
2023-02-15T16:50:40.112Z,95.43
2023-02-15T16:53:52.789Z,87.03
2023-02-15T16:57:02.827Z,89.36
2023-02-15T17:00:24.053Z,92.67
2023-02-15T17:03:31.405Z,93.69
2023-02-15T17:06:38.262Z,97.76
2023-02-15T17:09:55.945Z,103.14
2023-02-15T17:13:14.764Z,95.38
2023-02-15T17:16:34.589Z,92.12
2023-02-15T17:19:54.402Z,92.44
2023-02-15T17:23:02.421Z,98.93
2023-02-15T17:26:21.779Z,91.52
2023-02-15T17:29:40.178Z,93.07
2023-02-15T17:32:59.763Z,97.83
2023-02-15T17:36:17.113Z,84.85
2023-02-15T17:39:26.276Z,85.46
2023-02-15T17:42:32.363Z,81.07
2023-02-15T17:45:52.751Z,75.65
2023-02-15T17:48:59.699Z,73.59
2023-02-15T17:52:08.687Z,70.71
2023-02-15T17:55:32.451Z,67.36
2023-02-15T17:58:39.922Z,61.69
2023-02-15T18:02:05.620Z,60.11
2023-02-15T18:05:30.458Z,60.54
2023-02-15T18:08:48.646Z,62.00
2023-02-15T18:11:55.591Z,66.13
2023-02-15T18:15:03.013Z,72.70
2023-02-15T18:18:16.592Z,76.58
2023-02-15T18:21:22.650Z,76.68
2023-02-15T18:24:30.418Z,72.35
2023-02-15T18:27:36.372Z,69.78
2023-02-15T18:30:45.557Z,69.47
2023-02-15T18:33:59.145Z,66.68
2023-02-15T18:37:14.054Z,71.05
2023-02-15T18:40:22.346Z,83.83
2023-02-15T18:43:29.163Z,78.81
2023-02-15T18:46:35.051Z,71.03
2023-02-15T18:49:44.599Z,72.01
2023-02-15T18:52:53.987Z,65.85
2023-02-15T18:56:00.886Z,65.76
2023-02-15T18:59:06.783Z,62.67
2023-02-15T19:02:17.485Z,68.72
2023-02-15T19:05:27.776Z,81.43
2023-02-15T19:08:34.828Z,68.63
2023-02-15T19:11:40.747Z,80.13
2023-02-15T19:14:47.418Z,85.21
2023-02-15T19:17:54.207Z,76.64
2023-02-15T19:21:03.610Z,78.12
2023-02-15T19:24:24.595Z,77.83
2023-02-15T19:27:36.301Z,81.82
2023-02-15T19:30:42.383Z,100.73
2023-02-15T19:33:49.194Z,110.78
2023-02-15T19:36:59.547Z,89.82
2023-02-15T19:40:08.062Z,75.25
2023-02-15T19:43:25.820Z,81.77
2023-02-15T19:46:34.319Z,89.63
2023-02-15T19:49:40.543Z,96.09
2023-02-15T19:52:51.150Z,115.91
2023-02-15T19:55:58.023Z,98.38
2023-02-15T19:59:08.076Z,84.24
2023-02-15T20:02:20.402Z,84.79
2023-02-15T20:05:29.286Z,80.12
2023-02-15T20:08:38.084Z,81.80
2023-02-15T20:11:44.879Z,76.88
2023-02-15T20:14:50.986Z,68.11
2023-02-15T20:17:59.976Z,59.35
2023-02-15T20:21:07.955Z,57.81
2023-02-15T20:24:23.204Z,54.96
2023-02-15T20:27:29.069Z,54.72
2023-02-15T20:30:36.367Z,53.65
2023-02-15T20:33:42.391Z,53.54
2023-02-15T20:36:49.286Z,53.37
2023-02-15T20:39:58.487Z,53.22
2023-02-15T20:43:05.472Z,54.63
2023-02-15T20:46:11.599Z,55.18
2023-02-15T20:49:18.669Z,53.98
2023-02-15T20:52:24.822Z,51.06
2023-02-15T20:55:35.904Z,52.05
2023-02-15T20:58:42.129Z,50.93
2023-02-15T21:01:49.274Z,47.93
2023-02-15T21:04:55.738Z,49.75
2023-02-15T21:08:03.913Z,48.04
2023-02-15T21:11:23.257Z,47.68
2023-02-15T21:14:32.142Z,48.69
2023-02-15T21:17:38.053Z,48.54
2023-02-15T21:20:50.480Z,48.71
2023-02-15T21:23:56.938Z,49.03
2023-02-15T21:27:07.449Z,49.90
2023-02-15T21:30:20.794Z,50.71
2023-02-15T21:33:29.601Z,50.94
2023-02-15T21:36:35.653Z,51.53
2023-02-15T21:39:42.679Z,52.53
2023-02-15T21:43:04.039Z,52.63
2023-02-15T21:46:31.307Z,53.44
2023-02-15T21:49:37.297Z,54.14
2023-02-15T21:52:41.537Z,56.01
2023-02-15T21:55:47.490Z,56.67
2023-02-15T21:58:56.834Z,55.44
2023-02-15T22:02:02.898Z,54.28
2023-02-15T22:05:17.900Z,59.68
2023-02-15T22:08:23.938Z,51.32
2023-02-15T22:11:32.942Z,48.79
2023-02-15T22:14:45.464Z,48.91
2023-02-15T22:17:57.715Z,48.44
2023-02-15T22:21:05.238Z,49.13
2023-02-15T22:24:12.109Z,47.68
2023-02-15T22:27:25.934Z,47.90
2023-02-15T22:30:39.762Z,51.15
2023-02-15T22:33:46.574Z,52.59
2023-02-15T22:36:53.213Z,54.05
2023-02-15T22:39:59.068Z,53.19
2023-02-15T22:43:09.496Z,51.50
2023-02-15T22:46:22.591Z,52.08
2023-02-15T22:49:29.467Z,53.14
2023-02-15T22:52:35.265Z,54.59
2023-02-15T22:55:42.334Z,53.49
2023-02-15T22:58:51.059Z,52.47
2023-02-15T23:02:03.584Z,53.25
2023-02-15T23:05:17.436Z,52.70
2023-02-15T23:08:25.171Z,53.30
2023-02-15T23:11:31.617Z,51.13
2023-02-15T23:14:40.255Z,49.58
2023-02-15T23:17:48.833Z,48.31
2023-02-15T23:21:00.411Z,48.63
2023-02-15T23:24:22.517Z,50.08
2023-02-15T23:27:41.543Z,50.62
2023-02-15T23:30:47.824Z,51.32
2023-02-15T23:33:57.557Z,52.17
2023-02-15T23:37:03.439Z,53.68
2023-02-15T23:40:30.492Z,54.02
2023-02-15T23:43:36.519Z,51.85
2023-02-15T23:46:46.573Z,49.93
2023-02-15T23:49:54.994Z,48.50
2023-02-15T23:53:03.564Z,47.21
2023-02-15T23:56:10.302Z,46.87
2023-02-15T23:59:24.350Z,47.74
